Time,TemperatureF,DewpointF,PressureIn,WindDirection,WindDirectionDegrees,WindSpeedMPH,WindSpeedGustMPH,Humidity,HourlyPrecipIn,Conditions,Clouds,dailyrainin,SoftwareType,DateUTC
2013-01-04 00:02:00,17.3,13.8,30.27,SW,228,1.8,1.8,86,0.00,,---,0.00,VWS V14.01,2013-01-04 06:02:00,
2013-01-04 00:07:00,17.1,13.6,30.27,SW,228,2.0,2.0,86,0.00,,---,0.00,VWS V14.01,2013-01-04 06:07:00,
2013-01-04 00:12:00,17.1,13.6,30.27,SW,228,2.2,2.2,86,0.00,,---,0.00,VWS V14.01,2013-01-04 06:12:00,
2013-01-04 00:17:00,16.9,13.4,30.27,SW,228,2.7,2.7,86,0.00,,---,0.00,VWS V14.01,2013-01-04 06:17:00,
2013-01-04 00:22:00,16.9,13.4,30.27,WSW,250,3.1,3.1,86,0.00,,---,0.00,VWS V14.01,2013-01-04 06:22:00,
2013-01-04 00:27:00,16.9,13.4,30.27,SSW,205,3.1,3.1,86,0.00,,---,0.00,VWS V14.01,2013-01-04 06:27:00,
2013-01-04 00:32:00,16.9,13.4,30.26,SW,228,1.8,1.8,86,0.00,,---,0.00,VWS V14.01,2013-01-04 06:32:00,
2013-01-04 00:37:00,16.7,13.2,30.26,SW,228,4.3,4.3,86,0.00,,---,0.00,VWS V14.01,2013-01-04 06:37:00,
2013-01-04 00:42:00,16.7,13.2,30.26,SW,228,3.4,3.4,86,0.00,,---,0.00,VWS V14.01,2013-01-04 06:42:00,
2013-01-04 00:47:00,16.6,13.4,30.25,SW,228,4.7,4.7,87,0.00,,---,0.00,VWS V14.01,2013-01-04 06:47:00,
2013-01-04 00:52:00,16.7,13.5,30.25,SSE,160,1.6,1.6,87,0.00,,---,0.00,VWS V14.01,2013-01-04 06:52:00,
2013-01-04 00:57:00,16.7,13.8,30.25,SW,228,2.0,2.0,88,0.00,,---,0.00,VWS V14.01,2013-01-04 06:57:00,
2013-01-04 01:02:00,16.7,13.5,30.24,SSW,205,3.6,3.6,87,0.00,,---,0.00,VWS V14.01,2013-01-04 07:02:00,
2013-01-04 01:07:00,16.7,13.5,30.24,WSW,250,4.5,4.5,87,0.00,,---,0.00,VWS V14.01,2013-01-04 07:07:00,
2013-01-04 01:12:00,16.6,13.4,30.24,SW,228,2.5,2.5,87,0.00,,---,0.00,VWS V14.01,2013-01-04 07:12:00,
2013-01-04 01:17:00,16.6,13.4,30.23,WSW,250,3.6,3.6,87,0.00,,---,0.00,VWS V14.01,2013-01-04 07:17:00,
2013-01-04 01:22:00,16.4,13.2,30.23,SW,228,3.6,3.6,87,0.00,,---,0.00,VWS V14.01,2013-01-04 07:22:00,
2013-01-04 01:27:00,16.4,13.5,30.23,SW,228,3.4,3.4,88,0.00,,---,0.00,VWS V14.01,2013-01-04 07:27:00,
2013-01-04 01:32:00,16.4,13.2,30.23,WSW,250,2.9,2.9,87,0.00,,---,0.00,VWS V14.01,2013-01-04 07:32:00,
2013-01-04 01:37:00,16.4,13.2,30.23,South,182,4.0,4.0,87,0.00,,---,0.00,VWS V14.01,2013-01-04 07:37:00,
2013-01-04 01:42:00,16.4,13.2,30.23,SW,228,2.2,2.2,87,0.00,,---,0.00,VWS V14.01,2013-01-04 07:42:00,
2013-01-04 01:47:00,16.4,13.2,30.23,SW,228,4.0,4.0,87,0.00,,---,0.00,VWS V14.01,2013-01-04 07:47:00,
2013-01-04 01:52:00,16.2,13.0,30.23,SW,228,2.2,2.2,87,0.00,,---,0.00,VWS V14.01,2013-01-04 07:52:00,
2013-01-04 01:57:00,16.2,13.0,30.23,WSW,250,3.4,3.4,87,0.00,,---,0.00,VWS V14.01,2013-01-04 07:57:00,
2013-01-04 02:02:00,16.0,13.1,30.23,WSW,250,4.7,4.7,88,0.00,,---,0.00,VWS V14.01,2013-01-04 08:02:00,
2013-01-04 02:07:00,16.0,13.1,30.23,SW,228,3.4,3.4,88,0.00,,---,0.00,VWS V14.01,2013-01-04 08:07:00,
2013-01-04 02:12:00,16.0,12.8,30.23,WSW,250,4.9,4.9,87,0.00,,---,0.00,VWS V14.01,2013-01-04 08:12:00,
2013-01-04 02:17:00,16.0,12.8,30.23,WSW,250,4.0,4.0,87,0.00,,---,0.00,VWS V14.01,2013-01-04 08:17:00,
2013-01-04 02:22:00,16.2,13.3,30.23,SW,228,2.2,2.2,88,0.00,,---,0.00,VWS V14.01,2013-01-04 08:22:00,
2013-01-04 02:27:00,16.2,13.3,30.23,SW,228,5.4,5.4,88,0.00,,---,0.00,VWS V14.01,2013-01-04 08:27:00,
2013-01-04 02:32:00,16.4,13.7,30.23,SW,228,4.7,4.7,89,0.00,,---,0.00,VWS V14.01,2013-01-04 08:32:00,
2013-01-04 02:37:00,16.6,13.9,30.22,SW,228,4.7,4.7,89,0.00,,---,0.00,VWS V14.01,2013-01-04 08:37:00,
2013-01-04 02:42:00,16.6,13.9,30.22,SSW,205,4.7,4.7,89,0.00,,---,0.00,VWS V14.01,2013-01-04 08:42:00,
2013-01-04 02:47:00,16.6,13.9,30.22,South,182,5.4,5.4,89,0.00,,---,0.00,VWS V14.01,2013-01-04 08:47:00,
2013-01-04 02:52:00,16.6,13.9,30.22,WSW,250,3.8,3.8,89,0.00,,---,0.00,VWS V14.01,2013-01-04 08:52:00,
2013-01-04 02:57:00,16.7,14.0,30.23,SSW,205,4.0,4.0,89,0.00,,---,0.00,VWS V14.01,2013-01-04 08:57:00,
2013-01-04 03:02:00,16.7,14.0,30.23,South,182,6.5,6.5,89,0.00,,---,0.00,VWS V14.01,2013-01-04 09:02:00,
2013-01-04 03:07:00,16.7,14.0,30.23,SSW,205,3.8,3.8,89,0.00,,---,0.00,VWS V14.01,2013-01-04 09:07:00,
2013-01-04 03:12:00,16.7,14.0,30.22,WSW,250,3.8,3.8,89,0.00,,---,0.00,VWS V14.01,2013-01-04 09:12:00,
2013-01-04 03:17:00,16.7,14.0,30.23,SSW,205,4.5,4.5,89,0.00,,---,0.00,VWS V14.01,2013-01-04 09:17:00,
2013-01-04 03:22:00,16.9,14.2,30.22,SW,228,4.0,4.0,89,0.00,,---,0.00,VWS V14.01,2013-01-04 09:22:00,
2013-01-04 03:27:00,16.9,14.2,30.22,WSW,250,3.1,3.1,89,0.00,,---,0.00,VWS V14.01,2013-01-04 09:27:00,
2013-01-04 03:32:00,16.9,14.2,30.22,SSW,205,4.3,4.3,89,0.00,,---,0.00,VWS V14.01,2013-01-04 09:32:00,
2013-01-04 03:37:00,16.7,14.0,30.22,SSW,205,3.6,3.6,89,0.00,,---,0.00,VWS V14.01,2013-01-04 09:37:00,
2013-01-04 03:42:00,16.9,14.2,30.22,SW,228,5.4,5.4,89,0.00,,---,0.00,VWS V14.01,2013-01-04 09:42:00,
2013-01-04 03:47:00,16.9,14.2,30.22,SW,228,3.4,3.4,89,0.00,,---,0.00,VWS V14.01,2013-01-04 09:47:00,
2013-01-04 03:52:00,16.7,14.0,30.21,SSW,205,3.4,3.4,89,0.00,,---,0.00,VWS V14.01,2013-01-04 09:52:00,
2013-01-04 03:57:00,16.7,14.0,30.21,South,182,4.0,4.0,89,0.00,,---,0.00,VWS V14.01,2013-01-04 09:57:00,
2013-01-04 04:02:00,16.7,14.0,30.21,SW,228,2.9,2.9,89,0.00,,---,0.00,VWS V14.01,2013-01-04 10:02:00,
2013-01-04 04:07:00,16.7,14.0,30.21,SSW,205,3.4,4.0,89,0.00,,---,0.00,VWS V14.01,2013-01-04 10:07:00,
2013-01-04 04:12:00,16.7,14.0,30.20,SW,228,4.3,4.3,89,0.00,,---,0.00,VWS V14.01,2013-01-04 10:12:00,
2013-01-04 04:17:00,16.7,14.0,30.20,WSW,250,4.5,4.5,89,0.00,,---,0.00,VWS V14.01,2013-01-04 10:17:00,
2013-01-04 04:22:00,16.9,14.2,30.20,SSW,205,6.3,6.3,89,0.00,,---,0.00,VWS V14.01,2013-01-04 10:22:00,
2013-01-04 04:27:00,16.9,14.2,30.20,WSW,250,2.0,2.0,89,0.00,,---,0.00,VWS V14.01,2013-01-04 10:27:00,
2013-01-04 04:32:00,16.7,13.8,30.20,SW,228,3.6,3.6,88,0.00,,---,0.00,VWS V14.01,2013-01-04 10:32:00,
2013-01-04 04:37:00,16.7,13.8,30.20,WSW,250,4.9,4.9,88,0.00,,---,0.00,VWS V14.01,2013-01-04 10:37:00,
2013-01-04 04:42:00,16.9,14.0,30.20,SW,228,5.8,5.8,88,0.00,,---,0.00,VWS V14.01,2013-01-04 10:42:00,
2013-01-04 04:47:00,16.9,14.0,30.20,SW,228,2.7,2.7,88,0.00,,---,0.00,VWS V14.01,2013-01-04 10:47:00,
2013-01-04 04:52:00,16.9,14.0,30.20,SW,228,5.4,5.4,88,0.00,,---,0.00,VWS V14.01,2013-01-04 10:52:00,
2013-01-04 04:57:00,16.9,14.0,30.20,WSW,250,2.5,2.5,88,0.00,,---,0.00,VWS V14.01,2013-01-04 10:57:00,
2013-01-04 05:02:00,16.9,14.0,30.20,SW,228,5.1,5.1,88,0.00,,---,0.00,VWS V14.01,2013-01-04 11:02:00,
2013-01-04 05:07:00,16.9,14.0,30.19,SW,228,2.9,2.9,88,0.00,,---,0.00,VWS V14.01,2013-01-04 11:07:00,
2013-01-04 05:12:00,16.9,14.0,30.19,SW,228,2.5,2.5,88,0.00,,---,0.00,VWS V14.01,2013-01-04 11:12:00,
2013-01-04 05:17:00,16.9,14.0,30.19,SW,228,2.9,2.9,88,0.00,,---,0.00,VWS V14.01,2013-01-04 11:17:00,
2013-01-04 05:22:00,16.9,14.0,30.19,SSW,205,3.4,3.4,88,0.00,,---,0.00,VWS V14.01,2013-01-04 11:22:00,
2013-01-04 05:27:00,16.7,13.8,30.19,SW,228,3.4,3.4,88,0.00,,---,0.00,VWS V14.01,2013-01-04 11:27:00,
2013-01-04 05:32:00,16.7,13.8,30.19,SSW,205,2.0,2.0,88,0.00,,---,0.00,VWS V14.01,2013-01-04 11:32:00,
2013-01-04 05:37:00,16.7,13.8,30.19,WSW,250,3.4,3.4,88,0.00,,---,0.00,VWS V14.01,2013-01-04 11:37:00,
2013-01-04 05:42:00,16.7,13.8,30.19,SW,228,2.9,2.9,88,0.00,,---,0.00,VWS V14.01,2013-01-04 11:42:00,
2013-01-04 05:47:00,16.6,13.7,30.19,West,272,1.3,1.3,88,0.00,,---,0.00,VWS V14.01,2013-01-04 11:47:00,
2013-01-04 05:52:00,16.6,13.7,30.19,WSW,250,2.0,2.0,88,0.00,,---,0.00,VWS V14.01,2013-01-04 11:52:00,
2013-01-04 05:57:00,16.6,13.7,30.18,WSW,250,3.4,3.4,88,0.00,,---,0.00,VWS V14.01,2013-01-04 11:57:00,
2013-01-04 06:02:00,16.6,13.7,30.18,SW,228,4.9,4.9,88,0.00,,---,0.00,VWS V14.01,2013-01-04 12:02:00,
2013-01-04 06:07:00,16.6,13.7,30.18,WSW,250,4.0,4.0,88,0.00,,---,0.00,VWS V14.01,2013-01-04 12:07:00,
2013-01-04 06:12:00,16.7,13.8,30.18,WSW,250,4.5,5.4,88,0.00,,---,0.00,VWS V14.01,2013-01-04 12:12:00,
2013-01-04 06:17:00,16.9,14.0,30.18,SW,228,6.7,6.7,88,0.00,,---,0.00,VWS V14.01,2013-01-04 12:17:00,
2013-01-04 06:22:00,16.9,14.0,30.18,SSW,205,4.0,4.0,88,0.00,,---,0.00,VWS V14.01,2013-01-04 12:22:00,
2013-01-04 06:27:00,16.9,13.7,30.18,SW,228,4.5,4.5,87,0.00,,---,0.00,VWS V14.01,2013-01-04 12:27:00,
2013-01-04 06:32:00,16.7,13.5,30.18,SW,228,3.1,3.1,87,0.00,,---,0.00,VWS V14.01,2013-01-04 12:32:00,
2013-01-04 06:37:00,16.6,13.4,30.18,SW,228,4.7,4.7,87,0.00,,---,0.00,VWS V14.01,2013-01-04 12:37:00,
2013-01-04 06:42:00,16.6,13.4,30.18,SW,228,3.4,3.4,87,0.00,,---,0.00,VWS V14.01,2013-01-04 12:42:00,
2013-01-04 06:47:00,16.6,13.4,30.18,SW,228,2.7,2.7,87,0.00,,---,0.01,VWS V14.01,2013-01-04 12:47:00,
2013-01-04 06:52:00,16.6,13.4,30.19,SW,228,4.9,4.9,87,0.00,,---,0.00,VWS V14.01,2013-01-04 12:52:00,
2013-01-04 06:57:00,16.6,13.4,30.19,SW,228,2.5,2.5,87,0.00,,---,0.00,VWS V14.01,2013-01-04 12:57:00,
2013-01-04 07:02:00,16.4,13.2,30.19,WSW,250,2.5,2.5,87,0.00,,---,0.00,VWS V14.01,2013-01-04 13:02:00,
2013-01-04 07:07:00,16.6,13.4,30.19,SSW,205,2.2,2.2,87,0.00,,---,0.00,VWS V14.01,2013-01-04 13:07:00,
2013-01-04 07:12:00,16.6,13.4,30.19,WSW,250,2.0,2.0,87,0.00,,---,0.00,VWS V14.01,2013-01-04 13:12:00,
2013-01-04 07:17:00,16.6,13.4,30.19,SSW,205,4.3,4.3,87,0.00,,---,0.00,VWS V14.01,2013-01-04 13:17:00,
2013-01-04 07:22:00,16.4,13.2,30.18,SSW,205,3.4,3.4,87,0.00,,---,0.00,VWS V14.01,2013-01-04 13:22:00,
2013-01-04 07:27:00,16.4,13.5,30.19,SW,228,4.7,4.7,88,0.00,,---,0.00,VWS V14.01,2013-01-04 13:27:00,
2013-01-04 07:32:00,16.4,13.2,30.18,SW,228,5.4,5.4,87,0.00,,---,0.00,VWS V14.01,2013-01-04 13:32:00,
2013-01-04 07:37:00,16.4,13.5,30.18,West,272,3.6,3.6,88,0.00,,---,0.00,VWS V14.01,2013-01-04 13:37:00,
2013-01-04 07:42:00,16.2,13.3,30.18,SW,228,4.5,4.5,88,0.00,,---,0.00,VWS V14.01,2013-01-04 13:42:00,
2013-01-04 07:47:00,16.2,13.3,30.18,SW,228,3.1,3.1,88,0.00,,---,0.00,VWS V14.01,2013-01-04 13:47:00,
2013-01-04 07:52:00,16.2,13.3,30.18,South,182,2.0,2.0,88,0.00,,---,0.00,VWS V14.01,2013-01-04 13:52:00,
2013-01-04 07:57:00,16.2,13.3,30.19,SW,228,3.4,3.4,88,0.00,,---,0.00,VWS V14.01,2013-01-04 13:57:00,
2013-01-04 08:02:00,16.2,13.3,30.19,WSW,250,2.2,2.2,88,0.00,,---,0.00,VWS V14.01,2013-01-04 14:02:00,
2013-01-04 08:07:00,16.2,13.0,30.19,SW,228,4.0,4.0,87,0.00,,---,0.00,VWS V14.01,2013-01-04 14:07:00,
2013-01-04 08:12:00,16.2,13.0,30.19,WSW,250,2.0,2.0,87,0.00,,---,0.00,VWS V14.01,2013-01-04 14:12:00,
2013-01-04 08:17:00,16.2,13.0,30.19,West,272,1.8,1.8,87,0.00,,---,0.00,VWS V14.01,2013-01-04 14:17:00,
2013-01-04 08:22:00,16.4,13.2,30.19,SW,228,5.4,5.4,87,0.00,,---,0.00,VWS V14.01,2013-01-04 14:22:00,
2013-01-04 08:27:00,16.4,13.2,30.19,SW,228,1.6,1.6,87,0.00,,---,0.00,VWS V14.01,2013-01-04 14:27:00,
2013-01-04 08:32:00,16.6,13.4,30.19,SW,228,1.8,1.8,87,0.00,,---,0.00,VWS V14.01,2013-01-04 14:32:00,
2013-01-04 08:37:00,16.6,13.4,30.19,SSW,205,2.2,2.2,87,0.00,,---,0.00,VWS V14.01,2013-01-04 14:37:00,
2013-01-04 08:42:00,16.6,13.4,30.19,SSW,205,1.6,1.6,87,0.00,,---,0.00,VWS V14.01,2013-01-04 14:42:00,
2013-01-04 08:47:00,16.7,13.5,30.20,SSW,205,3.1,3.1,87,0.00,,---,0.00,VWS V14.01,2013-01-04 14:47:00,
2013-01-04 08:52:00,16.9,13.7,30.19,West,272,4.0,4.0,87,0.00,,---,0.00,VWS V14.01,2013-01-04 14:52:00,
2013-01-04 08:57:00,16.9,13.4,30.19,South,182,3.1,3.1,86,0.00,,---,0.00,VWS V14.01,2013-01-04 14:57:00,
2013-01-04 09:02:00,17.1,13.6,30.20,SSW,205,5.4,5.4,86,0.00,,---,0.00,VWS V14.01,2013-01-04 15:02:00,
2013-01-04 09:07:00,17.1,13.6,30.19,SSW,205,3.4,3.4,86,0.00,,---,0.00,VWS V14.01,2013-01-04 15:07:00,
2013-01-04 09:12:00,17.3,13.8,30.19,SSW,205,3.1,3.1,86,0.00,,---,0.00,VWS V14.01,2013-01-04 15:12:00,
2013-01-04 09:17:00,17.5,14.0,30.19,SW,228,6.3,6.3,86,0.00,,---,0.00,VWS V14.01,2013-01-04 15:17:00,
2013-01-04 09:22:00,17.6,13.9,30.19,SW,228,8.1,8.1,85,0.00,,---,0.00,VWS V14.01,2013-01-04 15:22:00,
2013-01-04 09:27:00,17.6,13.9,30.19,SSW,205,4.5,4.5,85,0.00,,---,0.00,VWS V14.01,2013-01-04 15:27:00,
2013-01-04 09:32:00,17.8,13.8,30.19,SSW,205,8.7,8.7,84,0.00,,---,0.00,VWS V14.01,2013-01-04 15:32:00,
2013-01-04 09:37:00,18.0,14.0,30.20,WSW,250,6.9,6.9,84,0.00,,---,0.00,VWS V14.01,2013-01-04 15:37:00,
2013-01-04 09:42:00,18.0,14.0,30.20,WSW,250,4.0,4.0,84,0.00,,---,0.00,VWS V14.01,2013-01-04 15:42:00,
2013-01-04 09:47:00,18.4,14.4,30.20,SW,228,4.3,4.3,84,0.00,,---,0.00,VWS V14.01,2013-01-04 15:47:00,
2013-01-04 09:52:00,19.4,15.1,30.20,SW,228,7.2,7.2,83,0.00,,---,0.00,VWS V14.01,2013-01-04 15:52:00,
2013-01-04 09:57:00,22.0,16.8,30.21,West,272,5.4,5.4,80,0.00,,---,0.00,VWS V14.01,2013-01-04 15:57:00,
2013-01-04 10:02:00,23.9,18.4,30.21,SSW,205,2.5,2.5,79,0.00,,---,0.00,VWS V14.01,2013-01-04 16:02:00,
2013-01-04 10:07:00,25.9,19.7,30.22,SW,228,3.8,3.8,77,0.00,,---,0.00,VWS V14.01,2013-01-04 16:07:00,
2013-01-04 10:12:00,27.0,20.1,30.22,WSW,250,1.8,1.8,75,0.00,,---,0.00,VWS V14.01,2013-01-04 16:12:00,
2013-01-04 10:17:00,28.3,20.8,30.22,South,182,4.9,4.9,73,0.00,,---,0.00,VWS V14.01,2013-01-04 16:17:00,
2013-01-04 10:22:00,28.8,20.6,30.22,WSW,250,4.0,4.0,71,0.00,,---,0.00,VWS V14.01,2013-01-04 16:22:00,
2013-01-04 10:27:00,29.0,19.4,30.23,SSW,205,4.0,4.0,67,0.00,,---,0.00,VWS V14.01,2013-01-04 16:27:00,
2013-01-04 10:32:00,30.1,20.5,30.23,SSW,205,1.8,1.8,67,0.00,,---,0.00,VWS V14.01,2013-01-04 16:32:00,
2013-01-04 10:36:00,31.3,21.3,30.23,WSW,250,4.0,4.0,66,0.00,,---,0.00,VWS V14.01,2013-01-04 16:36:00,
2013-01-04 10:42:00,31.9,20.8,30.23,SW,228,5.4,5.4,63,0.00,,---,0.00,VWS V14.01,2013-01-04 16:42:00,
2013-01-04 10:47:00,31.5,20.0,30.23,SW,228,3.1,3.1,62,0.00,,---,0.00,VWS V14.01,2013-01-04 16:47:00,
2013-01-04 10:52:00,31.7,19.4,30.22,WSW,250,2.9,2.9,60,0.00,,---,0.00,VWS V14.01,2013-01-04 16:52:00,
2013-01-04 10:57:00,30.6,18.0,30.22,SW,228,3.6,3.6,59,0.00,,---,0.00,VWS V14.01,2013-01-04 16:57:00,
2013-01-04 11:02:00,30.6,18.8,30.22,SSW,205,4.3,4.3,61,0.00,,---,0.00,VWS V14.01,2013-01-04 17:02:00,
2013-01-04 11:07:00,31.0,18.4,30.22,SSW,205,3.6,3.6,59,0.00,,---,0.00,VWS V14.01,2013-01-04 17:07:00,
2013-01-04 11:11:00,31.3,18.6,30.22,SSW,205,4.9,4.9,59,0.00,,---,0.00,VWS V14.01,2013-01-04 17:11:00,
2013-01-04 11:16:00,30.4,17.4,30.21,WSW,250,5.4,5.4,58,0.00,,---,0.00,VWS V14.01,2013-01-04 17:16:00,
2013-01-04 11:21:00,30.4,18.2,30.21,SW,228,5.1,5.1,60,0.00,,---,0.00,VWS V14.01,2013-01-04 17:21:00,
2013-01-04 11:26:00,31.3,18.2,30.21,SW,228,4.0,4.0,58,0.00,,---,0.00,VWS V14.01,2013-01-04 17:26:00,
2013-01-04 11:31:00,30.8,17.4,30.21,SSW,205,8.9,8.9,57,0.00,,---,0.00,VWS V14.01,2013-01-04 17:31:00,
2013-01-04 11:36:00,30.4,17.4,30.21,SW,228,4.0,4.0,58,0.00,,---,0.00,VWS V14.01,2013-01-04 17:36:00,
2013-01-04 11:41:00,29.7,17.5,30.21,SSW,205,6.7,6.7,60,0.00,,---,0.00,VWS V14.01,2013-01-04 17:41:00,
2013-01-04 11:46:00,29.2,17.4,30.21,SSW,205,4.0,4.0,61,0.00,,---,0.00,VWS V14.01,2013-01-04 17:46:00,
2013-01-04 11:51:00,28.8,17.4,30.20,SSW,205,1.3,1.3,62,0.00,,---,0.00,VWS V14.01,2013-01-04 17:51:00,
2013-01-04 11:56:00,28.6,17.2,30.20,WSW,250,3.4,3.4,62,0.00,,---,0.00,VWS V14.01,2013-01-04 17:56:00,
2013-01-04 12:01:00,28.6,17.2,30.20,SW,228,4.7,4.7,62,0.00,,---,0.00,VWS V14.01,2013-01-04 18:01:00,
2013-01-04 12:06:00,28.4,17.1,30.20,SW,228,5.4,5.4,62,0.00,,---,0.00,VWS V14.01,2013-01-04 18:06:00,
2013-01-04 12:11:00,28.4,17.4,30.20,WSW,250,6.3,6.3,63,0.00,,---,0.00,VWS V14.01,2013-01-04 18:11:00,
2013-01-04 12:16:00,28.4,17.8,30.19,SW,228,2.9,2.9,64,0.00,,---,0.00,VWS V14.01,2013-01-04 18:16:00,
2013-01-04 12:21:00,29.0,18.0,30.19,SW,228,5.6,5.6,63,0.00,,---,0.00,VWS V14.01,2013-01-04 18:21:00,
2013-01-04 12:26:00,30.1,19.8,30.19,SW,228,3.6,3.6,65,0.00,,---,0.00,VWS V14.01,2013-01-04 18:26:00,
2013-01-04 12:31:00,31.3,20.2,30.19,SW,228,2.5,2.5,63,0.00,,---,0.00,VWS V14.01,2013-01-04 18:31:00,
2013-01-04 12:36:00,32.6,19.9,30.18,SW,228,4.0,4.0,59,0.00,,---,0.00,VWS V14.01,2013-01-04 18:36:00,
2013-01-04 12:41:00,33.5,20.3,30.18,SW,228,5.8,5.8,58,0.00,,---,0.00,VWS V14.01,2013-01-04 18:41:00,
2013-01-04 12:46:00,34.0,20.8,30.18,SSW,205,5.4,5.4,58,0.00,,---,0.00,VWS V14.01,2013-01-04 18:46:00,
2013-01-04 12:51:00,34.6,20.5,30.17,SSW,205,5.1,5.1,56,0.00,,---,0.00,VWS V14.01,2013-01-04 18:51:00,
2013-01-04 12:56:00,34.2,20.1,30.17,South,182,6.0,6.0,56,0.00,,---,0.00,VWS V14.01,2013-01-04 18:56:00,
2013-01-04 13:01:00,33.7,19.3,30.16,SW,228,3.4,3.4,55,0.00,,---,0.00,VWS V14.01,2013-01-04 19:01:00,
2013-01-04 13:06:00,33.7,19.7,30.16,SSW,205,4.5,4.5,56,0.00,,---,0.00,VWS V14.01,2013-01-04 19:06:00,
2013-01-04 13:11:00,33.7,19.7,30.16,SSW,205,1.6,1.6,56,0.00,,---,0.00,VWS V14.01,2013-01-04 19:11:00,
2013-01-04 13:16:00,33.7,19.7,30.16,SW,228,2.7,2.7,56,0.00,,---,0.00,VWS V14.01,2013-01-04 19:16:00,
2013-01-04 13:21:00,34.2,20.1,30.16,SW,228,1.8,1.8,56,0.00,,---,0.00,VWS V14.01,2013-01-04 19:21:00,
2013-01-04 13:26:00,34.4,20.3,30.16,SW,228,3.4,3.4,56,0.00,,---,0.00,VWS V14.01,2013-01-04 19:26:00,
2013-01-04 13:31:00,34.2,20.1,30.16,SW,228,2.7,2.7,56,0.00,,---,0.00,VWS V14.01,2013-01-04 19:31:00,
2013-01-04 13:36:00,34.2,20.6,30.16,SSW,205,2.5,2.5,57,0.00,,---,0.01,VWS V14.01,2013-01-04 19:36:00,
2013-01-04 13:41:00,34.2,20.6,30.15,SSW,205,2.0,2.0,57,0.00,,---,0.00,VWS V14.01,2013-01-04 19:41:00,
2013-01-04 13:46:00,34.0,20.4,30.16,WSW,250,4.7,4.7,57,0.00,,---,0.00,VWS V14.01,2013-01-04 19:46:00,
2013-01-04 13:51:00,34.2,20.6,30.15,WSW,250,2.9,2.9,57,0.00,,---,0.00,VWS V14.01,2013-01-04 19:51:00,
2013-01-04 13:56:00,34.0,20.4,30.15,West,272,3.4,3.4,57,0.00,,---,0.00,VWS V14.01,2013-01-04 19:56:00,
2013-01-04 14:01:00,33.7,20.1,30.15,SSW,205,5.4,5.4,57,0.00,,---,0.00,VWS V14.01,2013-01-04 20:01:00,
2013-01-04 14:06:00,33.5,20.3,30.15,SSW,205,5.6,5.6,58,0.00,,---,0.00,VWS V14.01,2013-01-04 20:06:00,
2013-01-04 14:11:00,33.8,20.2,30.15,WSW,250,4.5,4.5,57,0.00,,---,0.00,VWS V14.01,2013-01-04 20:11:00,
2013-01-04 14:16:00,34.2,21.0,30.15,SW,228,2.0,2.0,58,0.00,,---,0.00,VWS V14.01,2013-01-04 20:16:00,
2013-01-04 14:21:00,34.7,21.5,30.15,SSW,205,1.8,1.8,58,0.00,,---,0.00,VWS V14.01,2013-01-04 20:21:00,
2013-01-04 14:26:00,34.9,22.0,30.15,SW,228,4.0,4.0,59,0.00,,---,0.00,VWS V14.01,2013-01-04 20:26:00,
2013-01-04 14:31:00,35.1,22.2,30.15,SSW,205,1.6,1.6,59,0.00,,---,0.00,VWS V14.01,2013-01-04 20:31:00,
2013-01-04 14:36:00,35.6,23.1,30.15,WSW,250,2.0,2.0,60,0.00,,---,0.00,VWS V14.01,2013-01-04 20:36:00,
2013-01-04 14:41:00,36.2,22.5,30.15,SW,228,2.9,2.9,57,0.00,,---,0.00,VWS V14.01,2013-01-04 20:41:00,
2013-01-04 14:46:00,36.4,23.5,30.14,SSW,205,2.5,2.5,59,0.00,,---,0.00,VWS V14.01,2013-01-04 20:46:00,
2013-01-04 14:51:00,36.7,23.7,30.14,WSW,250,2.7,2.7,59,0.00,,---,0.00,VWS V14.01,2013-01-04 20:51:00,
2013-01-04 14:56:00,37.3,24.3,30.14,WSW,250,2.5,2.5,59,0.00,,---,0.00,VWS V14.01,2013-01-04 20:56:00,
2013-01-04 15:01:00,37.8,24.0,30.14,WSW,250,4.0,4.0,57,0.00,,---,0.00,VWS V14.01,2013-01-04 21:01:00,
2013-01-04 15:06:00,37.6,22.5,30.14,SW,228,1.8,1.8,54,0.00,,---,0.00,VWS V14.01,2013-01-04 21:06:00,
2013-01-04 15:11:00,37.6,23.3,30.14,SW,228,2.5,2.5,56,0.00,,---,0.00,VWS V14.01,2013-01-04 21:11:00,
2013-01-04 15:16:00,38.2,23.5,30.14,WSW,250,4.0,4.0,55,0.00,,---,0.00,VWS V14.01,2013-01-04 21:16:00,
2013-01-04 15:21:00,37.8,22.7,30.14,SSW,205,1.3,1.3,54,0.00,,---,0.00,VWS V14.01,2013-01-04 21:21:00,
2013-01-04 15:26:00,37.6,21.6,30.14,SW,228,2.5,2.5,52,0.00,,---,0.00,VWS V14.01,2013-01-04 21:26:00,
2013-01-04 15:31:00,37.6,22.5,30.14,SSW,205,2.0,2.0,54,0.00,,---,0.00,VWS V14.01,2013-01-04 21:31:00,
2013-01-04 15:36:00,38.2,23.5,30.14,SW,228,0.4,0.4,55,0.00,,---,0.00,VWS V14.01,2013-01-04 21:36:00,
2013-01-04 15:41:00,38.7,22.6,30.14,SW,228,3.4,3.4,52,0.00,,---,0.00,VWS V14.01,2013-01-04 21:41:00,
2013-01-04 15:46:00,38.7,22.6,30.14,SSW,205,0.4,0.4,52,0.00,,---,0.00,VWS V14.01,2013-01-04 21:46:00,
2013-01-04 15:51:00,38.5,22.9,30.14,SSW,205,2.7,2.7,53,0.00,,---,0.00,VWS V14.01,2013-01-04 21:51:00,
2013-01-04 15:56:00,38.2,22.1,30.15,SSW,205,3.6,3.6,52,0.00,,---,0.00,VWS V14.01,2013-01-04 21:56:00,
2013-01-04 16:01:00,36.7,21.2,30.15,SSW,205,3.4,3.4,53,0.00,,---,0.00,VWS V14.01,2013-01-04 22:01:00,
2013-01-04 16:06:00,36.0,21.0,30.15,SW,228,1.3,1.3,54,0.00,,---,0.00,VWS V14.01,2013-01-04 22:06:00,
2013-01-04 16:11:00,36.2,22.0,30.15,SSW,205,2.9,2.9,56,0.00,,---,0.00,VWS V14.01,2013-01-04 22:11:00,
2013-01-04 16:16:00,36.0,21.4,30.15,SSW,205,3.4,3.4,55,0.00,,---,0.00,VWS V14.01,2013-01-04 22:16:00,
2013-01-04 16:21:00,35.3,21.6,30.15,SW,228,1.8,1.8,57,0.00,,---,0.00,VWS V14.01,2013-01-04 22:21:00,
2013-01-04 16:26:00,34.7,21.0,30.15,SSW,205,3.1,3.1,57,0.00,,---,0.00,VWS V14.01,2013-01-04 22:26:00,
2013-01-04 16:31:00,34.2,21.0,30.15,SW,228,2.5,2.5,58,0.00,,---,0.00,VWS V14.01,2013-01-04 22:31:00,
2013-01-04 16:36:00,33.8,21.0,30.15,SW,228,3.4,3.4,59,0.00,,---,0.00,VWS V14.01,2013-01-04 22:36:00,
2013-01-04 16:41:00,33.5,21.1,30.15,SSW,205,3.4,3.4,60,0.00,,---,0.00,VWS V14.01,2013-01-04 22:41:00,
2013-01-04 16:46:00,33.1,20.7,30.15,SW,228,2.7,2.7,60,0.00,,---,0.00,VWS V14.01,2013-01-04 22:46:00,
2013-01-04 16:51:00,32.9,20.9,30.15,SSW,205,1.8,2.5,61,0.00,,---,0.00,VWS V14.01,2013-01-04 22:51:00,
2013-01-04 16:56:00,32.8,20.9,30.15,SW,228,2.5,2.5,61,0.00,,---,0.00,VWS V14.01,2013-01-04 22:56:00,
2013-01-04 17:01:00,32.2,20.7,30.15,SSW,205,1.6,1.6,62,0.00,,---,0.00,VWS V14.01,2013-01-04 23:01:00,
2013-01-04 17:06:00,32.0,20.5,30.15,SW,228,1.8,1.8,62,0.00,,---,0.00,VWS V14.01,2013-01-04 23:06:00,
2013-01-04 17:11:00,31.7,20.2,30.15,SSW,205,3.1,3.1,62,0.00,,---,0.00,VWS V14.01,2013-01-04 23:11:00,
2013-01-04 17:16:00,31.3,20.2,30.15,SSW,205,2.5,2.5,63,0.00,,---,0.00,VWS V14.01,2013-01-04 23:16:00,
2013-01-04 17:21:00,31.0,20.3,30.14,South,182,3.6,3.6,64,0.00,,---,0.00,VWS V14.01,2013-01-04 23:21:00,
2013-01-04 17:26:00,30.8,20.8,30.14,SSE,160,3.4,3.4,66,0.00,,---,0.00,VWS V14.01,2013-01-04 23:26:00,
2013-01-04 17:31:00,30.4,20.4,30.14,SSW,205,2.2,2.2,66,0.00,,---,0.00,VWS V14.01,2013-01-04 23:31:00,
2013-01-04 17:36:00,30.1,20.5,30.14,SSW,205,2.5,2.5,67,0.00,,---,0.00,VWS V14.01,2013-01-04 23:36:00,
2013-01-04 17:41:00,29.7,20.5,30.14,South,182,2.2,2.2,68,0.00,,---,0.00,VWS V14.01,2013-01-04 23:41:00,
2013-01-04 17:46:00,29.3,20.1,30.14,SW,228,1.8,1.8,68,0.00,,---,0.00,VWS V14.01,2013-01-04 23:46:00,
2013-01-04 17:51:00,29.2,20.0,30.14,SW,228,2.5,2.5,68,0.00,,---,0.00,VWS V14.01,2013-01-04 23:51:00,
2013-01-04 17:56:00,28.8,19.9,30.15,WSW,250,4.5,4.5,69,0.00,,---,0.00,VWS V14.01,2013-01-04 23:56:00,
2013-01-04 18:01:00,28.4,19.5,30.14,SSW,205,1.8,1.8,69,0.00,,---,0.00,VWS V14.01,2013-01-05 00:01:00,
2013-01-04 18:06:00,28.3,19.5,30.15,SSW,205,1.8,1.8,69,0.00,,---,0.00,VWS V14.01,2013-01-05 00:06:00,
2013-01-04 18:11:00,27.9,19.4,30.15,SW,228,2.0,2.0,70,0.00,,---,0.00,VWS V14.01,2013-01-05 00:11:00,
2013-01-04 18:16:00,27.7,19.5,30.15,SSW,205,3.4,3.4,71,0.00,,---,0.00,VWS V14.01,2013-01-05 00:16:00,
2013-01-04 18:21:00,27.4,19.6,30.15,South,182,3.8,3.8,72,0.00,,---,0.00,VWS V14.01,2013-01-05 00:21:00,
2013-01-04 18:26:00,27.4,19.6,30.15,SSW,205,3.1,3.1,72,0.00,,---,0.00,VWS V14.01,2013-01-05 00:26:00,
2013-01-04 18:31:00,27.2,19.4,30.15,South,182,3.6,3.6,72,0.00,,---,0.00,VWS V14.01,2013-01-05 00:31:00,
2013-01-04 18:36:00,27.0,19.2,30.15,SSW,205,4.3,4.3,72,0.00,,---,0.00,VWS V14.01,2013-01-05 00:36:00,
2013-01-04 18:41:00,26.6,19.1,30.15,SW,228,4.7,4.7,73,0.00,,---,0.00,VWS V14.01,2013-01-05 00:41:00,
2013-01-04 18:46:00,26.5,19.4,30.15,SSE,160,4.5,4.5,74,0.00,,---,0.00,VWS V14.01,2013-01-05 00:46:00,
2013-01-04 18:51:00,26.3,19.1,30.15,SSW,205,2.2,2.2,74,0.00,,---,0.00,VWS V14.01,2013-01-05 00:51:00,
2013-01-04 18:56:00,25.9,18.8,30.15,SSW,205,2.2,2.2,74,0.00,,---,0.00,VWS V14.01,2013-01-05 00:56:00,
2013-01-04 19:01:00,25.9,18.8,30.15,SW,228,4.7,4.7,74,0.00,,---,0.00,VWS V14.01,2013-01-05 01:01:00,
2013-01-04 19:06:00,25.9,18.8,30.15,SSW,205,3.8,3.8,74,0.00,,---,0.00,VWS V14.01,2013-01-05 01:06:00,
2013-01-04 19:11:00,25.7,18.6,30.15,SW,228,3.8,3.8,74,0.00,,---,0.00,VWS V14.01,2013-01-05 01:11:00,
2013-01-04 19:16:00,25.6,18.5,30.15,SW,228,4.7,4.7,74,0.00,,---,0.00,VWS V14.01,2013-01-05 01:16:00,
2013-01-04 19:21:00,25.4,18.3,30.14,SSW,205,2.5,2.5,74,0.00,,---,0.00,VWS V14.01,2013-01-05 01:21:00,
2013-01-04 19:26:00,25.2,18.1,30.15,SSW,205,2.5,2.5,74,0.00,,---,0.00,VWS V14.01,2013-01-05 01:26:00,
2013-01-04 19:31:00,25.0,17.9,30.15,SW,228,2.5,2.5,74,0.00,,---,0.00,VWS V14.01,2013-01-05 01:31:00,
2013-01-04 19:36:00,24.8,17.7,30.15,South,182,1.1,1.1,74,0.00,,---,0.00,VWS V14.01,2013-01-05 01:36:00,
2013-01-04 19:41:00,24.5,17.4,30.15,South,182,1.3,2.5,74,0.00,,---,0.00,VWS V14.01,2013-01-05 01:41:00,
2013-01-04 19:46:00,24.1,17.3,30.15,SSW,205,3.4,3.4,75,0.00,,---,0.00,VWS V14.01,2013-01-05 01:46:00,
2013-01-04 19:51:00,24.1,17.3,30.15,South,182,2.5,2.5,75,0.00,,---,0.00,VWS V14.01,2013-01-05 01:51:00,
2013-01-04 19:56:00,24.1,17.3,30.15,SSW,205,2.9,2.9,75,0.00,,---,0.00,VWS V14.01,2013-01-05 01:56:00,
2013-01-04 20:01:00,24.1,17.3,30.15,SW,228,3.4,3.4,75,0.00,,---,0.00,VWS V14.01,2013-01-05 02:01:00,
2013-01-04 20:06:00,23.9,17.5,30.15,SSW,205,2.7,2.7,76,0.00,,---,0.00,VWS V14.01,2013-01-05 02:06:00,
2013-01-04 20:11:00,23.8,17.4,30.14,SSW,205,2.5,2.5,76,0.00,,---,0.00,VWS V14.01,2013-01-05 02:11:00,
2013-01-04 20:16:00,23.6,16.9,30.14,SSW,205,2.0,2.0,75,0.00,,---,0.00,VWS V14.01,2013-01-05 02:16:00,
2013-01-04 20:21:00,23.4,17.0,30.15,South,182,2.5,2.5,76,0.00,,---,0.00,VWS V14.01,2013-01-05 02:21:00,
2013-01-04 20:26:00,23.4,17.0,30.14,South,182,2.2,2.2,76,0.00,,---,0.00,VWS V14.01,2013-01-05 02:26:00,
2013-01-04 20:31:00,23.0,16.6,30.14,South,182,1.1,1.1,76,0.00,,---,0.00,VWS V14.01,2013-01-05 02:31:00,
2013-01-04 20:36:00,22.7,16.3,30.14,SW,228,1.8,1.8,76,0.00,,---,0.00,VWS V14.01,2013-01-05 02:36:00,
2013-01-04 20:41:00,22.5,16.1,30.14,SW,228,1.8,1.8,76,0.00,,---,0.00,VWS V14.01,2013-01-05 02:41:00,
2013-01-04 20:46:00,22.5,16.1,30.13,SSW,205,2.0,2.0,76,0.00,,---,0.00,VWS V14.01,2013-01-05 02:46:00,
2013-01-04 20:51:00,22.5,16.4,30.14,SSW,205,1.8,1.8,77,0.00,,---,0.00,VWS V14.01,2013-01-05 02:51:00,
2013-01-04 20:56:00,22.3,16.2,30.13,SSW,205,2.5,2.5,77,0.00,,---,0.00,VWS V14.01,2013-01-05 02:56:00,
2013-01-04 21:01:00,22.3,16.2,30.14,SW,228,3.4,3.4,77,0.00,,---,0.00,VWS V14.01,2013-01-05 03:01:00,
2013-01-04 21:06:00,22.3,16.2,30.14,South,182,2.2,2.2,77,0.00,,---,0.00,VWS V14.01,2013-01-05 03:06:00,
2013-01-04 21:11:00,22.3,16.2,30.13,SSW,205,2.7,2.7,77,0.00,,---,0.00,VWS V14.01,2013-01-05 03:11:00,
2013-01-04 21:16:00,22.1,16.0,30.14,SSW,205,2.2,2.2,77,0.00,,---,0.00,VWS V14.01,2013-01-05 03:16:00,
2013-01-04 21:21:00,22.1,16.0,30.13,SSW,205,2.0,2.0,77,0.00,,---,0.00,VWS V14.01,2013-01-05 03:21:00,
2013-01-04 21:26:00,22.0,15.9,30.13,SW,228,2.5,2.5,77,0.00,,---,0.00,VWS V14.01,2013-01-05 03:26:00,
2013-01-04 21:31:00,21.8,15.7,30.13,SW,228,1.6,1.6,77,0.00,,---,0.00,VWS V14.01,2013-01-05 03:31:00,
2013-01-04 21:36:00,21.8,15.7,30.13,SW,228,1.3,1.3,77,0.00,,---,0.00,VWS V14.01,2013-01-05 03:36:00,
2013-01-04 21:41:00,21.6,15.5,30.13,SW,228,1.6,1.6,77,0.00,,---,0.00,VWS V14.01,2013-01-05 03:41:00,
2013-01-04 21:46:00,21.6,15.5,30.13,SW,228,2.0,2.0,77,0.00,,---,0.00,VWS V14.01,2013-01-05 03:46:00,
2013-01-04 21:51:00,21.6,15.8,30.13,SW,228,2.2,2.2,78,0.00,,---,0.00,VWS V14.01,2013-01-05 03:51:00,
2013-01-04 21:56:00,21.6,15.8,30.13,WSW,250,3.6,3.6,78,0.00,,---,0.00,VWS V14.01,2013-01-05 03:56:00,
2013-01-04 22:01:00,21.4,15.6,30.13,West,272,1.8,1.8,78,0.00,,---,0.00,VWS V14.01,2013-01-05 04:01:00,
2013-01-04 22:06:00,21.2,15.4,30.13,SW,228,2.5,2.5,78,0.00,,---,0.00,VWS V14.01,2013-01-05 04:06:00,
2013-01-04 22:11:00,21.2,15.4,30.13,SW,228,1.8,1.8,78,0.00,,---,0.00,VWS V14.01,2013-01-05 04:11:00,
2013-01-04 22:16:00,20.9,15.1,30.13,SW,228,1.6,1.6,78,0.00,,---,0.00,VWS V14.01,2013-01-05 04:16:00,
2013-01-04 22:21:00,20.7,14.9,30.13,SSW,205,2.0,2.0,78,0.00,,---,0.00,VWS V14.01,2013-01-05 04:21:00,
2013-01-04 22:26:00,20.5,14.7,30.13,SW,228,2.0,2.0,78,0.00,,---,0.00,VWS V14.01,2013-01-05 04:26:00,
2013-01-04 22:31:00,20.5,14.7,30.12,WSW,250,2.5,2.5,78,0.00,,---,0.00,VWS V14.01,2013-01-05 04:31:00,
2013-01-04 22:36:00,20.5,14.7,30.12,WSW,250,1.3,1.3,78,0.00,,---,0.00,VWS V14.01,2013-01-05 04:36:00,
2013-01-04 22:41:00,20.5,14.7,30.12,SW,228,2.2,2.2,78,0.00,,---,0.00,VWS V14.01,2013-01-05 04:41:00,
2013-01-04 22:46:00,20.3,14.6,30.12,SSW,205,1.8,1.8,78,0.00,,---,0.00,VWS V14.01,2013-01-05 04:46:00,
2013-01-04 22:51:00,20.3,14.6,30.12,WSW,250,1.8,1.8,78,0.00,,---,0.00,VWS V14.01,2013-01-05 04:51:00,
2013-01-04 22:56:00,20.3,14.6,30.12,SW,228,2.7,2.7,78,0.00,,---,0.00,VWS V14.01,2013-01-05 04:56:00,
2013-01-04 23:00:00,20.5,14.7,30.12,WSW,250,2.9,2.9,78,0.00,,---,0.00,VWS V14.01,2013-01-05 05:00:00,
2013-01-04 23:01:00,20.5,14.7,30.12,SW,228,3.4,3.4,78,0.00,,---,0.00,VWS V14.01,2013-01-05 05:01:00,
2013-01-04 23:06:00,20.5,15.0,30.12,SW,228,1.8,1.8,79,0.00,,---,0.00,VWS V14.01,2013-01-05 05:06:00,
2013-01-04 23:11:00,20.5,15.0,30.11,WSW,250,2.5,2.5,79,0.00,,---,0.00,VWS V14.01,2013-01-05 05:11:00,
2013-01-04 23:16:00,20.3,14.8,30.11,SW,228,2.0,2.0,79,0.00,,---,0.00,VWS V14.01,2013-01-05 05:16:00,
2013-01-04 23:21:00,20.2,14.4,30.11,SW,228,1.3,1.3,78,0.00,,---,0.00,VWS V14.01,2013-01-05 05:21:00,
2013-01-04 23:26:00,20.2,14.4,30.11,SSW,205,2.0,2.0,78,0.00,,---,0.00,VWS V14.01,2013-01-05 05:26:00,
2013-01-04 23:31:00,19.8,14.1,30.11,SSW,205,2.5,2.5,78,0.00,,---,0.00,VWS V14.01,2013-01-05 05:31:00,
2013-01-04 23:36:00,20.0,14.6,30.10,WNW,295,1.1,1.1,79,0.00,,---,0.00,VWS V14.01,2013-01-05 05:36:00,
2013-01-04 23:41:00,20.2,14.7,30.10,WSW,250,3.1,3.1,79,0.00,,---,0.00,VWS V14.01,2013-01-05 05:41:00,
2013-01-04 23:46:00,20.2,14.7,30.10,SSW,205,1.1,1.1,79,0.00,,---,0.00,VWS V14.01,2013-01-05 05:46:00,
2013-01-04 23:51:00,20.3,14.8,30.10,SW,228,3.4,3.4,79,0.00,,---,0.00,VWS V14.01,2013-01-05 05:51:00,
2013-01-04 23:56:00,20.3,14.8,30.10,SW,228,2.2,2.2,79,0.00,,---,0.00,VWS V14.01,2013-01-05 05:56:00,